UAL1826 KCHS-KEWR
Flight info
| Callsign | UAL1826 |
|---|---|
| Flight time | 1h 22m |
| Altitude | 39000 |
| Route | SWPFX3 FILLI LCAPE ALWZZ OGRAE Q99 QUART PHLBO4 |
| Aircraft | B738/M-SDE2E3FGHIRWXY/LB1 |
Departure
| Time | 2026-04-25 19:49 |
|---|---|
| Airport | Charleston International Airport (KCHS) |
Arrival
| Time | 2026-04-25 21:11 |
|---|---|
| Airport | Newark Liberty International Airport (KEWR) |
| Time | Latitude | Longitude | Altitude | Speed | Heading |
|---|---|---|---|---|---|
| 2026-04-25 19:22 | 32.88574 | -80.03599 | 56 ft | 0 kts | 181° |
| 2026-04-25 19:37 | 32.88580 | -80.03598 | 37 ft | 3 kts | 181° |
| 2026-04-25 19:37 | 32.88599 | -80.03598 | 37 ft | 3 kts | 181° |
| 2026-04-25 19:37 | 32.88617 | -80.03598 | 37 ft | 3 kts | 181° |
| 2026-04-25 19:38 | 32.88635 | -80.03596 | 37 ft | 3 kts | 218° |
| 2026-04-25 19:38 | 32.88644 | -80.03578 | 35 ft | 2 kts | 283° |
| 2026-04-25 19:38 | 32.88644 | -80.03577 | 35 ft | 0 kts | 285° |
| 2026-04-25 19:41 | 32.88644 | -80.03578 | 37 ft | 1 kts | 285° |
| 2026-04-25 19:41 | 32.88648 | -80.03591 | 37 ft | 2 kts | 295° |
| 2026-04-25 19:41 | 32.88658 | -80.03607 | 37 ft | 5 kts | 307° |
| 2026-04-25 19:42 | 32.88747 | -80.03655 | 37 ft | 16 kts | 11° |
| 2026-04-25 19:42 | 32.88880 | -80.03623 | 40 ft | 21 kts | 8° |
| 2026-04-25 19:42 | 32.89022 | -80.03602 | 45 ft | 20 kts | 6° |
| 2026-04-25 19:42 | 32.89162 | -80.03601 | 46 ft | 21 kts | 342° |
| 2026-04-25 19:43 | 32.89217 | -80.03753 | 48 ft | 21 kts | 281° |
| 2026-04-25 19:43 | 32.89247 | -80.03919 | 51 ft | 20 kts | 280° |
| 2026-04-25 19:43 | 32.89274 | -80.04087 | 50 ft | 22 kts | 282° |
| 2026-04-25 19:43 | 32.89303 | -80.04272 | 50 ft | 23 kts | 277° |
| 2026-04-25 19:44 | 32.89318 | -80.04448 | 47 ft | 18 kts | 311° |
| 2026-04-25 19:44 | 32.89436 | -80.04455 | 52 ft | 17 kts | 4° |
| 2026-04-25 19:44 | 32.89561 | -80.04455 | 51 ft | 21 kts | 0° |
| 2026-04-25 19:44 | 32.89731 | -80.04453 | 52 ft | 29 kts | 1° |
| 2026-04-25 19:45 | 32.89948 | -80.04447 | 53 ft | 32 kts | 360° |
| 2026-04-25 19:45 | 32.90160 | -80.04444 | 51 ft | 30 kts | 1° |
| 2026-04-25 19:45 | 32.90367 | -80.04438 | 51 ft | 29 kts | 1° |
| 2026-04-25 19:45 | 32.90541 | -80.04538 | 52 ft | 27 kts | 328° |
| 2026-04-25 19:46 | 32.90696 | -80.04657 | 49 ft | 26 kts | 327° |
| 2026-04-25 19:46 | 32.90841 | -80.04767 | 54 ft | 24 kts | 327° |
| 2026-04-25 19:46 | 32.90976 | -80.04870 | 60 ft | 23 kts | 327° |
| 2026-04-25 19:46 | 32.91115 | -80.04976 | 56 ft | 25 kts | 327° |
| 2026-04-25 19:47 | 32.91213 | -80.04957 | 57 ft | 17 kts | 59° |
| 2026-04-25 19:47 | 32.91245 | -80.04899 | 59 ft | 0 kts | 56° |
| 2026-04-25 19:47 | 32.91246 | -80.04897 | 59 ft | 3 kts | 56° |
| 2026-04-25 19:47 | 32.91285 | -80.04817 | 59 ft | 16 kts | 83° |
| 2026-04-25 19:48 | 32.91249 | -80.04771 | 60 ft | 8 kts | 147° |
| 2026-04-25 19:48 | 32.91151 | -80.04695 | 56 ft | 45 kts | 147° |
| 2026-04-25 19:48 | 32.90624 | -80.04298 | 54 ft | 134 kts | 147° |
| 2026-04-25 19:48 | 32.89657 | -80.03534 | 427 ft | 183 kts | 145° |
| 2026-04-25 19:49 | 32.88583 | -80.02601 | 1371 ft | 200 kts | 136° |
| 2026-04-25 19:49 | 32.88289 | -80.02156 | 1726 ft | 207 kts | 124° |
| 2026-04-25 19:49 | 32.88224 | -79.99191 | 2775 ft | 248 kts | 64° |
| 2026-04-25 19:49 | 32.89317 | -79.97608 | 3597 ft | 246 kts | 41° |
| 2026-04-25 19:50 | 32.92199 | -79.95104 | 4799 ft | 267 kts | 42° |
| 2026-04-25 19:50 | 32.93564 | -79.93541 | 5454 ft | 278 kts | 41° |
| 2026-04-25 19:50 | 32.95304 | -79.92479 | 6004 ft | 295 kts | 6° |
| 2026-04-25 19:51 | 32.97380 | -79.92567 | 6669 ft | 299 kts | 349° |
| 2026-04-25 19:51 | 32.99366 | -79.92879 | 8090 ft | 282 kts | 350° |
| 2026-04-25 19:51 | 33.01329 | -79.93120 | 9285 ft | 281 kts | 352° |
| 2026-04-25 19:51 | 33.03297 | -79.93307 | 10216 ft | 286 kts | 353° |
| 2026-04-25 19:52 | 33.05321 | -79.93460 | 10651 ft | 308 kts | 353° |
| 2026-04-25 19:52 | 33.07559 | -79.93598 | 10843 ft | 335 kts | 355° |
| 2026-04-25 19:52 | 33.09957 | -79.93720 | 11202 ft | 352 kts | 355° |
| 2026-04-25 19:52 | 33.12442 | -79.93828 | 11867 ft | 359 kts | 356° |
| 2026-04-25 19:53 | 33.14946 | -79.93930 | 12662 ft | 362 kts | 356° |
| 2026-04-25 19:53 | 33.17481 | -79.94033 | 13452 ft | 366 kts | 356° |
| 2026-04-25 19:53 | 33.20043 | -79.94137 | 14161 ft | 370 kts | 355° |
| 2026-04-25 19:53 | 33.22627 | -79.94143 | 14841 ft | 375 kts | 4° |
| 2026-04-25 19:54 | 33.25207 | -79.93531 | 15533 ft | 381 kts | 12° |
| 2026-04-25 19:54 | 33.27789 | -79.92740 | 16205 ft | 385 kts | 12° |
| 2026-04-25 19:54 | 33.30410 | -79.91942 | 16768 ft | 392 kts | 11° |
| 2026-04-25 19:54 | 33.32173 | -79.91425 | 17167 ft | 395 kts | 11° |
| 2026-04-25 19:55 | 33.35735 | -79.90418 | 18036 ft | 399 kts | 10° |
| 2026-04-25 19:55 | 33.38462 | -79.89662 | 18576 ft | 403 kts | 10° |
| 2026-04-25 19:55 | 33.41209 | -79.88904 | 19133 ft | 407 kts | 10° |
| 2026-04-25 19:55 | 33.43980 | -79.88140 | 19681 ft | 410 kts | 10° |
| 2026-04-25 19:56 | 33.46778 | -79.87366 | 20228 ft | 413 kts | 10° |
| 2026-04-25 19:56 | 33.49596 | -79.86586 | 20768 ft | 417 kts | 11° |
| 2026-04-25 19:56 | 33.52434 | -79.85799 | 21297 ft | 420 kts | 11° |
| 2026-04-25 19:56 | 33.55297 | -79.85005 | 21778 ft | 425 kts | 10° |
| 2026-04-25 19:57 | 33.58195 | -79.84200 | 22226 ft | 429 kts | 11° |
| 2026-04-25 19:57 | 33.61115 | -79.83388 | 22719 ft | 432 kts | 11° |
| 2026-04-25 19:57 | 33.64059 | -79.82569 | 23213 ft | 435 kts | 11° |
| 2026-04-25 19:57 | 33.67019 | -79.81745 | 23639 ft | 439 kts | 11° |
| 2026-04-25 19:58 | 33.70003 | -79.80913 | 24037 ft | 441 kts | 11° |
| 2026-04-25 19:58 | 33.73001 | -79.80077 | 24451 ft | 444 kts | 11° |
| 2026-04-25 19:58 | 33.75978 | -79.79246 | 24837 ft | 446 kts | 11° |
| 2026-04-25 19:58 | 33.79006 | -79.78400 | 25311 ft | 447 kts | 11° |
| 2026-04-25 19:59 | 33.82045 | -79.77551 | 25663 ft | 450 kts | 11° |
| 2026-04-25 19:59 | 33.85114 | -79.76693 | 25984 ft | 454 kts | 11° |
| 2026-04-25 19:59 | 33.88186 | -79.75740 | 26358 ft | 457 kts | 13° |
| 2026-04-25 19:59 | 33.91250 | -79.74648 | 26752 ft | 460 kts | 15° |
| 2026-04-25 20:00 | 33.94312 | -79.73500 | 27125 ft | 463 kts | 15° |
| 2026-04-25 20:00 | 33.95356 | -79.73104 | 27220 ft | 464 kts | 15° |
| 2026-04-25 20:00 | 34.00493 | -79.71166 | 27805 ft | 467 kts | 15° |
| 2026-04-25 20:00 | 34.03612 | -79.70005 | 28160 ft | 469 kts | 15° |
| 2026-04-25 20:01 | 34.09878 | -79.67705 | 28651 ft | 478 kts | 14° |
| 2026-04-25 20:01 | 34.13069 | -79.66540 | 28976 ft | 480 kts | 14° |
| 2026-04-25 20:01 | 34.16267 | -79.65372 | 29326 ft | 481 kts | 14° |
| 2026-04-25 20:02 | 34.19476 | -79.64199 | 29648 ft | 483 kts | 14° |
| 2026-04-25 20:02 | 34.22701 | -79.63018 | 30016 ft | 483 kts | 14° |
| 2026-04-25 20:02 | 34.25913 | -79.61840 | 30437 ft | 481 kts | 14° |
| 2026-04-25 20:02 | 34.29107 | -79.60668 | 30917 ft | 477 kts | 14° |
| 2026-04-25 20:03 | 34.32246 | -79.59515 | 31273 ft | 478 kts | 14° |
| 2026-04-25 20:03 | 34.35433 | -79.58344 | 31535 ft | 479 kts | 14° |
| 2026-04-25 20:03 | 34.38628 | -79.57170 | 31898 ft | 478 kts | 14° |
| 2026-04-25 20:03 | 34.41808 | -79.55999 | 32362 ft | 475 kts | 14° |
| 2026-04-25 20:04 | 34.44966 | -79.54834 | 32825 ft | 472 kts | 13° |
| 2026-04-25 20:04 | 34.48104 | -79.53677 | 33216 ft | 471 kts | 13° |
| 2026-04-25 20:04 | 34.51240 | -79.52521 | 33571 ft | 470 kts | 13° |
| 2026-04-25 20:04 | 34.54366 | -79.51340 | 33914 ft | 471 kts | 16° |
| 2026-04-25 20:05 | 34.57378 | -79.49746 | 34158 ft | 476 kts | 25° |
| 2026-04-25 20:05 | 34.60265 | -79.47756 | 34440 ft | 477 kts | 27° |
| 2026-04-25 20:05 | 34.63122 | -79.45737 | 34781 ft | 474 kts | 26° |
| 2026-04-25 20:05 | 34.65942 | -79.43793 | 35136 ft | 472 kts | 25° |
| 2026-04-25 20:06 | 34.68834 | -79.41939 | 35456 ft | 467 kts | 20° |
| 2026-04-25 20:06 | 34.71861 | -79.40591 | 35841 ft | 459 kts | 11° |
| 2026-04-25 20:06 | 34.74952 | -79.39815 | 36204 ft | 452 kts | 5° |
| 2026-04-25 20:06 | 34.78056 | -79.39184 | 36489 ft | 451 kts | 5° |
| 2026-04-25 20:07 | 34.81157 | -79.38572 | 36712 ft | 452 kts | 4° |
| 2026-04-25 20:07 | 34.84271 | -79.37952 | 36948 ft | 452 kts | 4° |
| 2026-04-25 20:07 | 34.87371 | -79.37319 | 37286 ft | 450 kts | 4° |
| 2026-04-25 20:07 | 34.90448 | -79.36677 | 37658 ft | 447 kts | 4° |
| 2026-04-25 20:08 | 34.93505 | -79.36030 | 37971 ft | 445 kts | 4° |
| 2026-04-25 20:08 | 34.96558 | -79.35380 | 38197 ft | 445 kts | 4° |
| 2026-04-25 20:08 | 34.99607 | -79.34728 | 38440 ft | 444 kts | 4° |
| 2026-04-25 20:08 | 35.02606 | -79.34086 | 38657 ft | 443 kts | 4° |
| 2026-04-25 20:09 | 35.05644 | -79.33435 | 38807 ft | 444 kts | 4° |
| 2026-04-25 20:09 | 35.08700 | -79.32782 | 38808 ft | 447 kts | 4° |
| 2026-04-25 20:09 | 35.14879 | -79.31460 | 38836 ft | 453 kts | 4° |
| 2026-04-25 20:10 | 35.21122 | -79.30119 | 38852 ft | 457 kts | 4° |
| 2026-04-25 20:10 | 35.27407 | -79.28765 | 38855 ft | 459 kts | 4° |
| 2026-04-25 20:11 | 35.33665 | -79.27416 | 38858 ft | 460 kts | 4° |
| 2026-04-25 20:11 | 35.39981 | -79.26052 | 38851 ft | 461 kts | 4° |
| 2026-04-25 20:12 | 35.46296 | -79.24686 | 38839 ft | 460 kts | 4° |
| 2026-04-25 20:12 | 35.50510 | -79.23774 | 38833 ft | 460 kts | 4° |
| 2026-04-25 20:13 | 35.58895 | -79.21956 | 38832 ft | 459 kts | 4° |
| 2026-04-25 20:13 | 35.65177 | -79.20591 | 38832 ft | 458 kts | 4° |
| 2026-04-25 20:14 | 35.71405 | -79.19208 | 38830 ft | 459 kts | 7° |
| 2026-04-25 20:14 | 35.77411 | -79.16231 | 38851 ft | 475 kts | 26° |
| 2026-04-25 20:15 | 35.82883 | -79.11537 | 38838 ft | 480 kts | 30° |
| 2026-04-25 20:15 | 35.88294 | -79.06684 | 38836 ft | 481 kts | 30° |
| 2026-04-25 20:16 | 35.92812 | -79.02680 | 38838 ft | 480 kts | 30° |
| 2026-04-25 20:16 | 35.98158 | -78.97994 | 38824 ft | 479 kts | 30° |
| 2026-04-25 20:17 | 36.03589 | -78.93249 | 38828 ft | 479 kts | 29° |
| 2026-04-25 20:17 | 36.09023 | -78.88491 | 38835 ft | 479 kts | 29° |
| 2026-04-25 20:18 | 36.14451 | -78.83727 | 38831 ft | 479 kts | 29° |
| 2026-04-25 20:18 | 36.19888 | -78.78944 | 38837 ft | 479 kts | 30° |
| 2026-04-25 20:19 | 36.25324 | -78.74155 | 38832 ft | 480 kts | 29° |
| 2026-04-25 20:19 | 36.30737 | -78.69377 | 38833 ft | 481 kts | 29° |
| 2026-04-25 20:20 | 36.36186 | -78.64558 | 38835 ft | 480 kts | 30° |
| 2026-04-25 20:20 | 36.41631 | -78.59735 | 38829 ft | 480 kts | 30° |
| 2026-04-25 20:21 | 36.47103 | -78.55016 | 38836 ft | 477 kts | 27° |
| 2026-04-25 20:21 | 36.52724 | -78.50638 | 38830 ft | 476 kts | 25° |
| 2026-04-25 20:22 | 36.57421 | -78.47033 | 38807 ft | 476 kts | 25° |
| 2026-04-25 20:22 | 36.63968 | -78.41936 | 38812 ft | 476 kts | 26° |
| 2026-04-25 20:23 | 36.69584 | -78.37520 | 38811 ft | 478 kts | 26° |
| 2026-04-25 20:23 | 36.75203 | -78.33088 | 38811 ft | 478 kts | 26° |
| 2026-04-25 20:24 | 36.80801 | -78.28668 | 38813 ft | 479 kts | 26° |
| 2026-04-25 20:24 | 36.86429 | -78.24217 | 38808 ft | 479 kts | 26° |
| 2026-04-25 20:25 | 36.92073 | -78.19746 | 38822 ft | 480 kts | 26° |
| 2026-04-25 20:25 | 36.97714 | -78.15270 | 38819 ft | 480 kts | 26° |
| 2026-04-25 20:26 | 37.03359 | -78.10783 | 38807 ft | 481 kts | 26° |
| 2026-04-25 20:26 | 37.09015 | -78.06280 | 38803 ft | 481 kts | 26° |
| 2026-04-25 20:27 | 37.14663 | -78.01774 | 38811 ft | 482 kts | 26° |
| 2026-04-25 20:27 | 37.20243 | -77.97314 | 38809 ft | 482 kts | 26° |
| 2026-04-25 20:28 | 37.25856 | -77.92819 | 38828 ft | 481 kts | 26° |
| 2026-04-25 20:28 | 37.31500 | -77.88290 | 38849 ft | 480 kts | 26° |
| 2026-04-25 20:29 | 37.37128 | -77.83769 | 38848 ft | 480 kts | 27° |
| 2026-04-25 20:29 | 37.42756 | -77.79238 | 38862 ft | 480 kts | 27° |
| 2026-04-25 20:30 | 37.48397 | -77.74688 | 38862 ft | 481 kts | 27° |
| 2026-04-25 20:30 | 37.53986 | -77.70174 | 38863 ft | 481 kts | 27° |
| 2026-04-25 20:31 | 37.59637 | -77.65617 | 38894 ft | 484 kts | 26° |
| 2026-04-25 20:31 | 37.65322 | -77.61024 | 38892 ft | 486 kts | 26° |
| 2026-04-25 20:32 | 37.71036 | -77.56395 | 38891 ft | 488 kts | 26° |
| 2026-04-25 20:32 | 37.76722 | -77.51782 | 38880 ft | 488 kts | 26° |
| 2026-04-25 20:33 | 37.82446 | -77.47130 | 38878 ft | 489 kts | 26° |
| 2026-04-25 20:33 | 37.87199 | -77.43259 | 38884 ft | 489 kts | 26° |
| 2026-04-25 20:34 | 37.93885 | -77.37803 | 38889 ft | 489 kts | 26° |
| 2026-04-25 20:34 | 37.99603 | -77.33129 | 38910 ft | 489 kts | 25° |
| 2026-04-25 20:35 | 38.05311 | -77.28463 | 38898 ft | 489 kts | 25° |
| 2026-04-25 20:35 | 38.11030 | -77.23779 | 38903 ft | 489 kts | 25° |
| 2026-04-25 20:36 | 38.16700 | -77.19125 | 38902 ft | 487 kts | 26° |
| 2026-04-25 20:36 | 38.22389 | -77.14444 | 38913 ft | 486 kts | 26° |
| 2026-04-25 20:37 | 38.28059 | -77.09774 | 38912 ft | 485 kts | 26° |
| 2026-04-25 20:37 | 38.33604 | -77.04820 | 38922 ft | 488 kts | 30° |
| 2026-04-25 20:38 | 38.38880 | -76.99637 | 38919 ft | 488 kts | 31° |
| 2026-04-25 20:38 | 38.44241 | -76.94371 | 38931 ft | 489 kts | 30° |
| 2026-04-25 20:39 | 38.49651 | -76.89125 | 38935 ft | 489 kts | 30° |
| 2026-04-25 20:39 | 38.54198 | -76.84732 | 38937 ft | 489 kts | 30° |
| 2026-04-25 20:40 | 38.60496 | -76.78633 | 38960 ft | 488 kts | 30° |
| 2026-04-25 20:40 | 38.65907 | -76.73378 | 38950 ft | 488 kts | 30° |
| 2026-04-25 20:41 | 38.71306 | -76.68124 | 38941 ft | 488 kts | 30° |
| 2026-04-25 20:41 | 38.76700 | -76.62866 | 38943 ft | 485 kts | 30° |
| 2026-04-25 20:42 | 38.79358 | -76.60265 | 38919 ft | 473 kts | 30° |
| 2026-04-25 20:42 | 38.81927 | -76.57742 | 38936 ft | 458 kts | 30° |
| 2026-04-25 20:42 | 38.84417 | -76.55298 | 38927 ft | 445 kts | 29° |
| 2026-04-25 20:42 | 38.86868 | -76.52900 | 38950 ft | 441 kts | 29° |
| 2026-04-25 20:43 | 38.91749 | -76.48134 | 38987 ft | 441 kts | 29° |
| 2026-04-25 20:43 | 38.96625 | -76.43352 | 38980 ft | 441 kts | 29° |
| 2026-04-25 20:44 | 39.01492 | -76.38564 | 39001 ft | 441 kts | 29° |
| 2026-04-25 20:44 | 39.06208 | -76.33529 | 39004 ft | 446 kts | 34° |
| 2026-04-25 20:45 | 39.10776 | -76.28087 | 39000 ft | 447 kts | 35° |
| 2026-04-25 20:45 | 39.15320 | -76.22693 | 38934 ft | 443 kts | 34° |
| 2026-04-25 20:46 | 39.17620 | -76.19998 | 37304 ft | 462 kts | 35° |
| 2026-04-25 20:46 | 39.20024 | -76.17198 | 36008 ft | 473 kts | 36° |
| 2026-04-25 20:46 | 39.22499 | -76.14305 | 34669 ft | 485 kts | 37° |
| 2026-04-25 20:46 | 39.25023 | -76.11345 | 33309 ft | 494 kts | 38° |
| 2026-04-25 20:47 | 39.27548 | -76.08379 | 31909 ft | 500 kts | 38° |
| 2026-04-25 20:47 | 39.30138 | -76.05334 | 30573 ft | 505 kts | 38° |
| 2026-04-25 20:47 | 39.32744 | -76.02271 | 29140 ft | 508 kts | 38° |
| 2026-04-25 20:47 | 39.35269 | -75.99299 | 27742 ft | 508 kts | 39° |
| 2026-04-25 20:48 | 39.37874 | -75.96230 | 26363 ft | 505 kts | 39° |
| 2026-04-25 20:48 | 39.40462 | -75.93174 | 25188 ft | 500 kts | 39° |
| 2026-04-25 20:48 | 39.42961 | -75.90217 | 24938 ft | 473 kts | 39° |
| 2026-04-25 20:48 | 39.45337 | -75.87400 | 24801 ft | 454 kts | 39° |
| 2026-04-25 20:49 | 39.47635 | -75.84678 | 24645 ft | 441 kts | 39° |
| 2026-04-25 20:49 | 39.49881 | -75.82019 | 24249 ft | 435 kts | 39° |
| 2026-04-25 20:49 | 39.52082 | -75.79416 | 23755 ft | 433 kts | 39° |
| 2026-04-25 20:49 | 39.54303 | -75.76787 | 23223 ft | 429 kts | 39° |
| 2026-04-25 20:50 | 39.56491 | -75.74190 | 22728 ft | 425 kts | 39° |
| 2026-04-25 20:50 | 39.58658 | -75.71616 | 22207 ft | 421 kts | 39° |
| 2026-04-25 20:50 | 39.60805 | -75.69062 | 21706 ft | 417 kts | 39° |
| 2026-04-25 20:50 | 39.62944 | -75.66515 | 21189 ft | 414 kts | 39° |
| 2026-04-25 20:51 | 39.65062 | -75.63993 | 20703 ft | 411 kts | 39° |
| 2026-04-25 20:51 | 39.67160 | -75.61491 | 20239 ft | 407 kts | 39° |
| 2026-04-25 20:51 | 39.69225 | -75.59021 | 20075 ft | 401 kts | 39° |
| 2026-04-25 20:51 | 39.71239 | -75.56595 | 20014 ft | 388 kts | 39° |
| 2026-04-25 20:52 | 39.73181 | -75.54251 | 20003 ft | 374 kts | 39° |
| 2026-04-25 20:52 | 39.74426 | -75.52748 | 19998 ft | 364 kts | 39° |
| 2026-04-25 20:52 | 39.76847 | -75.49823 | 19999 ft | 346 kts | 38° |
| 2026-04-25 20:52 | 39.78582 | -75.47730 | 19939 ft | 338 kts | 38° |
| 2026-04-25 20:53 | 39.80311 | -75.45649 | 19349 ft | 347 kts | 38° |
| 2026-04-25 20:53 | 39.82133 | -75.43462 | 18366 ft | 367 kts | 38° |
| 2026-04-25 20:53 | 39.84052 | -75.41152 | 17184 ft | 381 kts | 39° |
| 2026-04-25 20:53 | 39.86007 | -75.38786 | 16354 ft | 381 kts | 39° |
| 2026-04-25 20:54 | 39.87941 | -75.36436 | 15993 ft | 379 kts | 39° |
| 2026-04-25 20:54 | 39.89869 | -75.34094 | 15597 ft | 378 kts | 39° |
| 2026-04-25 20:54 | 39.91790 | -75.31762 | 15141 ft | 379 kts | 39° |
| 2026-04-25 20:54 | 39.93725 | -75.29412 | 14750 ft | 380 kts | 39° |
| 2026-04-25 20:55 | 39.95658 | -75.27065 | 14364 ft | 380 kts | 40° |
| 2026-04-25 20:55 | 39.97586 | -75.24720 | 13974 ft | 379 kts | 40° |
| 2026-04-25 20:55 | 39.99515 | -75.22372 | 13569 ft | 378 kts | 40° |
| 2026-04-25 20:55 | 40.01432 | -75.20038 | 13154 ft | 377 kts | 40° |
| 2026-04-25 20:56 | 40.03344 | -75.17706 | 12956 ft | 374 kts | 40° |
| 2026-04-25 20:56 | 40.05225 | -75.15409 | 12936 ft | 365 kts | 40° |
| 2026-04-25 20:56 | 40.07047 | -75.13182 | 12917 ft | 351 kts | 40° |
| 2026-04-25 20:56 | 40.08788 | -75.11054 | 12577 ft | 347 kts | 40° |
| 2026-04-25 20:57 | 40.10584 | -75.08864 | 11783 ft | 358 kts | 40° |
| 2026-04-25 20:57 | 40.12396 | -75.06648 | 11450 ft | 353 kts | 40° |
| 2026-04-25 20:57 | 40.14156 | -75.04489 | 11363 ft | 341 kts | 40° |
| 2026-04-25 20:57 | 40.15855 | -75.02404 | 11272 ft | 329 kts | 40° |
| 2026-04-25 20:58 | 40.17493 | -75.00393 | 11195 ft | 318 kts | 40° |
| 2026-04-25 20:58 | 40.19029 | -74.98508 | 10942 ft | 310 kts | 40° |
| 2026-04-25 20:58 | 40.20596 | -74.96586 | 10514 ft | 307 kts | 40° |
| 2026-04-25 20:58 | 40.22143 | -74.94688 | 10112 ft | 305 kts | 40° |
| 2026-04-25 20:59 | 40.23692 | -74.92785 | 9720 ft | 306 kts | 40° |
| 2026-04-25 20:59 | 40.25241 | -74.90879 | 9191 ft | 307 kts | 40° |
| 2026-04-25 20:59 | 40.26753 | -74.88870 | 8541 ft | 311 kts | 45° |
| 2026-04-25 20:59 | 40.28220 | -74.86792 | 8099 ft | 307 kts | 45° |
| 2026-04-25 21:00 | 40.29641 | -74.84759 | 7949 ft | 298 kts | 45° |
| 2026-04-25 21:00 | 40.30095 | -74.84113 | 7948 ft | 295 kts | 45° |
| 2026-04-25 21:00 | 40.33745 | -74.78966 | 7334 ft | 294 kts | 44° |
| 2026-04-25 21:01 | 40.35144 | -74.77001 | 7024 ft | 303 kts | 46° |
| 2026-04-25 21:01 | 40.36571 | -74.74991 | 6797 ft | 304 kts | 46° |
| 2026-04-25 21:01 | 40.38018 | -74.72954 | 6514 ft | 297 kts | 46° |
| 2026-04-25 21:01 | 40.39404 | -74.71002 | 6314 ft | 288 kts | 47° |
| 2026-04-25 21:02 | 40.40763 | -74.69083 | 6114 ft | 286 kts | 47° |
| 2026-04-25 21:02 | 40.42072 | -74.67135 | 5913 ft | 285 kts | 56° |
| 2026-04-25 21:02 | 40.42675 | -74.65613 | 5783 ft | 282 kts | 75° |
| 2026-04-25 21:02 | 40.43231 | -74.63137 | 5627 ft | 286 kts | 77° |
| 2026-04-25 21:03 | 40.43809 | -74.60606 | 5425 ft | 292 kts | 77° |
| 2026-04-25 21:03 | 40.44590 | -74.57282 | 5123 ft | 281 kts | 77° |
| 2026-04-25 21:03 | 40.44975 | -74.55647 | 4998 ft | 275 kts | 78° |
| 2026-04-25 21:03 | 40.45723 | -74.52463 | 4746 ft | 275 kts | 78° |
| 2026-04-25 21:04 | 40.46103 | -74.50843 | 4613 ft | 276 kts | 78° |
| 2026-04-25 21:04 | 40.46672 | -74.48440 | 4445 ft | 274 kts | 78° |
| 2026-04-25 21:04 | 40.47231 | -74.46076 | 4269 ft | 273 kts | 78° |
| 2026-04-25 21:04 | 40.47792 | -74.43706 | 4070 ft | 270 kts | 77° |
| 2026-04-25 21:05 | 40.48341 | -74.41396 | 3864 ft | 260 kts | 78° |
| 2026-04-25 21:05 | 40.48866 | -74.39163 | 3675 ft | 251 kts | 78° |
| 2026-04-25 21:05 | 40.49371 | -74.37009 | 3508 ft | 244 kts | 78° |
| 2026-04-25 21:05 | 40.49861 | -74.34918 | 3346 ft | 235 kts | 77° |
| 2026-04-25 21:06 | 40.50336 | -74.32899 | 3169 ft | 227 kts | 77° |
| 2026-04-25 21:06 | 40.50795 | -74.30945 | 3016 ft | 220 kts | 77° |
| 2026-04-25 21:06 | 40.51241 | -74.29052 | 2860 ft | 213 kts | 76° |
| 2026-04-25 21:06 | 40.51668 | -74.27911 | 2803 ft | 213 kts | 54° |
| 2026-04-25 21:07 | 40.53324 | -74.26535 | 2586 ft | 213 kts | 31° |
| 2026-04-25 21:07 | 40.54634 | -74.25724 | 2425 ft | 203 kts | 31° |
| 2026-04-25 21:07 | 40.55890 | -74.24940 | 2237 ft | 197 kts | 32° |
| 2026-04-25 21:07 | 40.57110 | -74.24175 | 2052 ft | 191 kts | 32° |
| 2026-04-25 21:08 | 40.58282 | -74.23438 | 1893 ft | 183 kts | 32° |
| 2026-04-25 21:08 | 40.59384 | -74.22746 | 1757 ft | 170 kts | 33° |
| 2026-04-25 21:08 | 40.60411 | -74.22099 | 1649 ft | 157 kts | 34° |
| 2026-04-25 21:08 | 40.61379 | -74.21481 | 1480 ft | 158 kts | 34° |
| 2026-04-25 21:09 | 40.63348 | -74.20228 | 1058 ft | 154 kts | 32° |
| 2026-04-25 21:09 | 40.64294 | -74.19627 | 842 ft | 150 kts | 33° |
| 2026-04-25 21:09 | 40.65239 | -74.19022 | 680 ft | 151 kts | 32° |
| 2026-04-25 21:10 | 40.66169 | -74.18419 | 476 ft | 146 kts | 31° |
| 2026-04-25 21:10 | 40.67085 | -74.17866 | 314 ft | 143 kts | 28° |
| 2026-04-25 21:10 | 40.67971 | -74.17288 | 83 ft | 143 kts | 30° |
| 2026-04-25 21:10 | 40.68806 | -74.16750 | 19 ft | 112 kts | 24° |
| 2026-04-25 21:11 | 40.69316 | -74.16430 | 25 ft | 49 kts | 25° |
| 2026-04-25 21:11 | 40.69514 | -74.16348 | 21 ft | 20 kts | 356° |
| 2026-04-25 21:11 | 40.69581 | -74.16428 | 19 ft | 0 kts | 296° |
| 2026-04-25 21:11 | 40.69581 | -74.16429 | 19 ft | 0 kts | 296° |
| 2026-04-25 21:12 | 40.69598 | -74.16480 | 19 ft | 15 kts | 293° |
| 2026-04-25 21:12 | 40.69644 | -74.16608 | 19 ft | 15 kts | 298° |
| 2026-04-25 21:12 | 40.69686 | -74.16735 | 18 ft | 15 kts | 268° |
| 2026-04-25 21:12 | 40.69667 | -74.16827 | 19 ft | 17 kts | 252° |
| 2026-04-25 21:13 | 40.69612 | -74.17028 | 20 ft | 17 kts | 250° |
| 2026-04-25 21:13 | 40.69626 | -74.17124 | 22 ft | 10 kts | 339° |
| 2026-04-25 21:13 | 40.69692 | -74.17160 | 20 ft | 10 kts | 328° |
| 2026-04-25 21:13 | 40.69751 | -74.17207 | 20 ft | 10 kts | 328° |
| 2026-04-25 21:14 | 40.69795 | -74.17270 | 22 ft | 10 kts | 283° |
| 2026-04-25 21:14 | 40.69757 | -74.17335 | 21 ft | 10 kts | 218° |
| 2026-04-25 21:14 | 40.69678 | -74.17421 | 21 ft | 18 kts | 224° |
| 2026-04-25 21:14 | 40.69664 | -74.17468 | 20 ft | 3 kts | 302° |
| 2026-04-25 21:15 | 40.69675 | -74.17489 | 22 ft | 3 kts | 306° |
| 2026-04-25 21:15 | 40.69681 | -74.17500 | 21 ft | 0 kts | 306° |